createdAt,value
2023-10-23T00:01:37.016Z,8.27
2023-10-23T00:04:04.400Z,8.20
2023-10-23T00:06:31.687Z,8.05
2023-10-23T00:08:59.122Z,8.04
2023-10-23T00:11:29.940Z,8.10
2023-10-23T00:13:57.077Z,8.15
2023-10-23T00:16:24.231Z,8.11
2023-10-23T00:18:52.637Z,7.97
2023-10-23T00:21:19.942Z,7.99
2023-10-23T00:23:47.027Z,7.90
2023-10-23T00:26:14.248Z,7.91
2023-10-23T00:28:49.009Z,7.91
2023-10-23T00:31:16.215Z,7.81
2023-10-23T00:33:43.621Z,7.92
2023-10-23T00:36:10.778Z,8.04
2023-10-23T00:38:37.842Z,8.10
2023-10-23T00:41:05.019Z,8.14
2023-10-23T00:43:32.219Z,8.04
2023-10-23T00:46:00.359Z,7.83
2023-10-23T00:48:28.348Z,7.94
2023-10-23T00:50:57.539Z,7.99
2023-10-23T00:53:26.782Z,7.87
2023-10-23T00:55:55.344Z,7.92
2023-10-23T00:58:26.187Z,7.90
2023-10-23T01:00:54.838Z,7.93
2023-10-23T01:03:22.384Z,7.74
2023-10-23T01:05:49.572Z,7.71
2023-10-23T01:08:16.846Z,7.78
2023-10-23T01:10:44.196Z,7.82
2023-10-23T01:13:11.369Z,7.80
2023-10-23T01:15:38.728Z,7.49
2023-10-23T01:18:05.964Z,7.14
2023-10-23T01:20:33.397Z,7.20
2023-10-23T01:23:01.352Z,7.35
2023-10-23T01:25:28.870Z,7.56
2023-10-23T01:27:56.360Z,7.52
2023-10-23T01:30:23.483Z,7.45
2023-10-23T01:32:50.813Z,7.49
2023-10-23T01:35:17.977Z,7.47
2023-10-23T01:37:46.463Z,7.42
2023-10-23T01:40:13.654Z,7.24
2023-10-23T01:42:41.598Z,7.21
2023-10-23T01:45:08.939Z,7.28
2023-10-23T01:47:37.261Z,7.29
2023-10-23T01:50:04.569Z,7.24
2023-10-23T01:52:31.674Z,7.07
2023-10-23T01:55:01.773Z,7.05
2023-10-23T01:57:32.450Z,7.08
2023-10-23T02:00:05.434Z,7.04
2023-10-23T02:02:42.597Z,7.09
2023-10-23T02:05:09.816Z,7.11
2023-10-23T02:07:36.895Z,7.17
2023-10-23T02:10:04.077Z,7.11
2023-10-23T02:12:34.392Z,7.03
2023-10-23T02:15:01.971Z,7.07
2023-10-23T02:17:29.373Z,7.00
2023-10-23T02:19:56.628Z,6.90
2023-10-23T02:22:23.775Z,6.87
2023-10-23T02:24:51.099Z,6.89
2023-10-23T02:27:18.370Z,6.54
2023-10-23T02:29:45.500Z,6.27
2023-10-23T02:32:13.084Z,6.35
2023-10-23T02:34:40.495Z,6.41
2023-10-23T02:37:09.108Z,6.58
2023-10-23T02:39:36.275Z,6.65
2023-10-23T02:42:03.551Z,6.52
2023-10-23T02:44:30.644Z,6.63
2023-10-23T02:46:59.204Z,6.67
2023-10-23T02:49:26.546Z,6.69
2023-10-23T02:51:53.772Z,6.64
2023-10-23T02:57:23.986Z,6.69
2023-10-23T02:59:51.171Z,6.65
2023-10-23T03:02:19.298Z,6.62
2023-10-23T03:04:46.582Z,6.74
2023-10-23T03:07:14.780Z,6.71
2023-10-23T03:09:42.470Z,6.61
2023-10-23T03:12:09.742Z,6.64
2023-10-23T03:14:36.858Z,6.68
2023-10-23T03:17:04.019Z,6.76
2023-10-23T03:19:31.396Z,6.80
2023-10-23T03:21:58.718Z,6.86
2023-10-23T03:24:25.955Z,6.88
2023-10-23T03:26:53.086Z,6.91
2023-10-23T03:29:20.199Z,6.84
2023-10-23T03:31:47.351Z,6.88
2023-10-23T03:34:14.797Z,6.80
2023-10-23T03:36:44.242Z,6.72
2023-10-23T03:39:11.383Z,6.68
2023-10-23T03:41:38.538Z,6.64
2023-10-23T03:44:05.864Z,6.65
2023-10-23T03:46:32.973Z,6.72
2023-10-23T03:49:00.123Z,6.71
2023-10-23T03:51:30.438Z,6.60
2023-10-23T03:53:57.545Z,6.60
2023-10-23T03:56:24.737Z,6.55
2023-10-23T03:58:51.850Z,6.54
2023-10-23T04:01:19.392Z,6.52
2023-10-23T04:03:46.552Z,6.47
2023-10-23T04:06:13.697Z,6.41
2023-10-23T04:08:40.821Z,6.34
2023-10-23T04:11:08.350Z,6.22
2023-10-23T04:13:36.159Z,6.40
2023-10-23T04:16:03.856Z,6.44
2023-10-23T04:18:31.155Z,6.48
2023-10-23T04:21:08.951Z,6.45
2023-10-23T04:23:36.780Z,6.34
2023-10-23T04:26:04.457Z,6.34
2023-10-23T04:28:32.014Z,6.33
2023-10-23T04:30:59.183Z,6.35
2023-10-23T04:33:26.541Z,6.24
2023-10-23T04:35:56.134Z,6.32
2023-10-23T04:38:23.456Z,6.28
2023-10-23T04:40:54.420Z,6.21
2023-10-23T04:43:21.994Z,6.27
2023-10-23T04:45:54.437Z,6.18
2023-10-23T04:48:21.962Z,6.17
2023-10-23T04:50:49.097Z,6.20
2023-10-23T04:53:16.247Z,6.23
2023-10-23T04:55:43.566Z,6.21
2023-10-23T04:58:11.146Z,6.34
2023-10-23T05:00:38.883Z,6.27
2023-10-23T05:03:06.702Z,6.20
2023-10-23T05:05:34.272Z,6.36
2023-10-23T05:08:01.386Z,6.38
2023-10-23T05:10:28.497Z,6.47
2023-10-23T05:12:55.623Z,6.44
2023-10-23T05:15:23.546Z,6.42
2023-10-23T05:17:50.744Z,6.49
2023-10-23T05:20:18.059Z,6.51
2023-10-23T05:22:47.753Z,6.42
2023-10-23T05:25:14.898Z,6.44
2023-10-23T05:27:42.004Z,6.40
2023-10-23T05:30:09.269Z,6.45
2023-10-23T05:32:37.157Z,6.49
2023-10-23T05:35:05.262Z,6.53
2023-10-23T05:37:38.663Z,6.55
2023-10-23T05:40:06.312Z,6.56
2023-10-23T05:42:33.667Z,6.58
2023-10-23T05:45:01.453Z,6.58
2023-10-23T05:47:29.637Z,6.56
2023-10-23T05:49:56.835Z,6.52
2023-10-23T05:52:23.891Z,6.54
2023-10-23T05:54:51.030Z,6.55
2023-10-23T05:57:18.282Z,6.60
2023-10-23T05:59:45.346Z,6.58
2023-10-23T06:02:13.993Z,6.62
2023-10-23T06:04:48.161Z,6.66
2023-10-23T06:07:15.294Z,6.60
2023-10-23T06:09:42.629Z,6.73
2023-10-23T06:12:13.783Z,6.83
2023-10-23T06:14:40.934Z,6.93
2023-10-23T06:17:08.772Z,7.00
2023-10-23T06:19:38.026Z,7.09
2023-10-23T06:22:05.397Z,7.16
2023-10-23T06:24:32.538Z,7.21
2023-10-23T06:26:59.790Z,7.25
2023-10-23T06:29:26.892Z,7.26
2023-10-23T06:31:55.852Z,7.32
2023-10-23T06:34:22.981Z,7.39
2023-10-23T06:36:50.132Z,7.39
2023-10-23T06:39:17.707Z,7.53
2023-10-23T06:41:44.778Z,7.55
2023-10-23T06:44:11.918Z,7.64
2023-10-23T06:46:39.185Z,7.78
2023-10-23T06:49:06.351Z,8.08
2023-10-23T06:51:33.449Z,8.25
2023-10-23T06:54:00.576Z,8.59
2023-10-23T06:56:27.783Z,8.42
2023-10-23T06:58:57.397Z,8.35
2023-10-23T07:01:37.977Z,8.22
2023-10-23T07:04:11.572Z,8.57
2023-10-23T07:06:39.009Z,8.66
2023-10-23T07:09:06.170Z,8.86
2023-10-23T07:11:33.277Z,9.04
2023-10-23T07:14:00.774Z,9.11
2023-10-23T07:16:28.063Z,9.09
2023-10-23T07:18:55.367Z,9.20
2023-10-23T07:21:24.705Z,9.65
2023-10-23T07:23:52.457Z,10.01
2023-10-23T07:26:19.604Z,9.63
2023-10-23T07:28:46.761Z,9.74
2023-10-23T07:31:17.399Z,9.82
2023-10-23T07:33:44.570Z,9.97
2023-10-23T07:36:12.443Z,10.08
2023-10-23T07:38:41.591Z,10.18
2023-10-23T07:41:09.196Z,10.59
2023-10-23T07:43:36.347Z,10.73
2023-10-23T07:46:15.539Z,10.29
2023-10-23T07:48:45.198Z,10.11
2023-10-23T07:51:12.622Z,10.46
2023-10-23T07:53:39.757Z,10.36
2023-10-23T07:56:07.098Z,10.61
2023-10-23T07:58:34.379Z,10.94
2023-10-23T08:01:12.365Z,11.07
2023-10-23T08:03:40.088Z,11.40
2023-10-23T08:06:08.558Z,11.35
2023-10-23T08:08:36.319Z,11.19
2023-10-23T08:11:07.836Z,11.65
2023-10-23T08:13:35.438Z,11.78
2023-10-23T08:16:03.168Z,11.90
2023-10-23T08:18:39.165Z,12.10
2023-10-23T08:21:09.010Z,12.02
2023-10-23T08:23:36.144Z,12.33
2023-10-23T08:26:04.675Z,12.07
2023-10-23T08:28:49.475Z,12.24
2023-10-23T08:31:34.313Z,12.21
2023-10-23T08:34:06.691Z,12.44
2023-10-23T08:36:34.268Z,12.63
2023-10-23T08:39:01.778Z,12.76
2023-10-23T08:41:29.643Z,12.76
2023-10-23T08:43:58.544Z,12.34
2023-10-23T08:46:32.992Z,12.05
2023-10-23T08:49:04.102Z,12.23
2023-10-23T08:51:32.330Z,12.49
2023-10-23T08:54:10.954Z,12.34
2023-10-23T08:56:40.066Z,12.51
2023-10-23T08:59:09.239Z,12.24
2023-10-23T09:01:37.673Z,12.14
2023-10-23T09:04:06.574Z,12.04
2023-10-23T09:06:34.613Z,12.33
2023-10-23T09:09:02.736Z,12.28
2023-10-23T09:11:39.636Z,12.43
2023-10-23T09:14:06.738Z,12.66
2023-10-23T09:16:33.975Z,12.61
2023-10-23T09:19:01.235Z,12.66
2023-10-23T09:21:28.628Z,12.60
2023-10-23T09:23:56.929Z,12.49
2023-10-23T09:26:24.211Z,12.66
2023-10-23T09:28:53.395Z,12.77
2023-10-23T09:31:21.208Z,12.69
2023-10-23T09:33:49.929Z,12.83
2023-10-23T09:36:17.512Z,12.77
2023-10-23T09:38:55.539Z,13.01
2023-10-23T09:41:22.639Z,12.94
2023-10-23T09:43:51.568Z,13.25
2023-10-23T09:46:20.175Z,13.30
2023-10-23T09:48:47.906Z,13.23
2023-10-23T09:51:20.205Z,13.16
2023-10-23T09:53:49.171Z,13.26
2023-10-23T09:56:25.137Z,13.20
2023-10-23T09:58:58.768Z,12.93
2023-10-23T10:01:33.062Z,12.94
2023-10-23T10:04:05.218Z,12.94
2023-10-23T10:06:34.487Z,12.86
2023-10-23T10:09:05.444Z,13.10
2023-10-23T10:11:32.732Z,13.13
2023-10-23T10:14:00.591Z,12.69
2023-10-23T10:16:28.006Z,12.79
2023-10-23T10:18:55.180Z,12.54
2023-10-23T10:21:24.769Z,12.79
2023-10-23T10:23:53.160Z,13.13
2023-10-23T10:26:21.163Z,13.08
2023-10-23T10:28:54.535Z,12.74
2023-10-23T10:31:23.343Z,12.74
2023-10-23T10:34:27.132Z,12.87
2023-10-23T10:36:47.823Z,12.76
2023-10-23T10:39:18.137Z,12.74
2023-10-23T10:41:45.843Z,12.84
2023-10-23T10:44:13.870Z,12.64
2023-10-23T10:46:42.364Z,12.93
2023-10-23T10:49:11.365Z,12.75
2023-10-23T10:51:38.812Z,12.96
2023-10-23T10:54:10.983Z,12.73
2023-10-23T10:56:38.209Z,12.77
2023-10-23T10:59:05.974Z,13.04
2023-10-23T11:01:34.010Z,12.86
2023-10-23T11:04:04.163Z,12.95
2023-10-23T11:06:31.544Z,12.90
2023-10-23T11:09:00.052Z,12.83
2023-10-23T11:11:28.260Z,12.83
2023-10-23T11:13:55.915Z,12.92
2023-10-23T11:16:23.878Z,12.88
2023-10-23T11:18:52.466Z,12.86
2023-10-23T11:21:23.449Z,12.83
2023-10-23T11:23:51.008Z,13.09
2023-10-23T11:26:18.179Z,13.21
2023-10-23T11:28:45.355Z,12.97
2023-10-23T11:31:13.417Z,12.95
2023-10-23T11:33:40.542Z,12.93
2023-10-23T11:36:08.056Z,12.85
2023-10-23T11:38:37.791Z,12.89
2023-10-23T11:41:04.931Z,12.98
2023-10-23T11:43:32.049Z,12.98
2023-10-23T11:45:59.205Z,13.05
2023-10-23T11:48:26.554Z,13.01
2023-10-23T11:50:53.751Z,12.77
2023-10-23T11:53:20.930Z,12.66
2023-10-23T11:55:48.109Z,12.74
2023-10-23T11:58:15.308Z,12.86
2023-10-23T12:00:42.459Z,12.67
2023-10-23T12:03:09.540Z,12.69
2023-10-23T12:05:36.653Z,12.67
2023-10-23T12:08:04.684Z,12.48
2023-10-23T12:10:32.119Z,12.56
2023-10-23T12:12:59.324Z,12.60
2023-10-23T12:15:28.602Z,12.60
2023-10-23T12:18:04.009Z,12.52
2023-10-23T12:20:31.227Z,12.67
2023-10-23T12:22:58.434Z,12.68
2023-10-23T12:25:25.601Z,12.66
2023-10-23T12:27:53.023Z,12.63
2023-10-23T12:30:23.520Z,12.49
2023-10-23T12:33:17.220Z,12.58
2023-10-23T12:35:40.562Z,12.53
2023-10-23T12:38:07.866Z,12.56
2023-10-23T12:40:37.248Z,12.62
2023-10-23T12:43:05.321Z,12.59
2023-10-23T12:45:34.367Z,12.59
2023-10-23T12:48:01.661Z,12.63
2023-10-23T12:50:30.251Z,12.64
2023-10-23T12:52:57.871Z,12.59
2023-10-23T12:55:25.106Z,12.54
2023-10-23T12:57:52.299Z,12.49
2023-10-23T13:00:19.415Z,12.43
2023-10-23T13:02:46.600Z,12.49
2023-10-23T13:05:13.987Z,12.38
2023-10-23T13:07:41.463Z,12.29
2023-10-23T13:10:08.889Z,12.33
2023-10-23T13:12:36.243Z,12.33
2023-10-23T13:15:04.298Z,12.33
2023-10-23T13:17:32.079Z,12.35
2023-10-23T13:21:30.542Z,12.42
2023-10-23T13:22:48.362Z,12.27
2023-10-23T13:25:18.953Z,12.36
2023-10-23T13:27:46.403Z,12.38
2023-10-23T13:30:13.609Z,12.36
2023-10-23T13:32:40.918Z,12.38
2023-10-23T13:35:09.161Z,12.47
2023-10-23T13:37:36.512Z,12.53
2023-10-23T13:40:08.401Z,12.46
2023-10-23T13:42:36.130Z,12.49
2023-10-23T13:45:03.560Z,12.47
2023-10-23T13:47:31.091Z,12.46
2023-10-23T13:49:59.255Z,12.53
2023-10-23T13:52:26.652Z,12.53
2023-10-23T13:54:54.100Z,12.52
2023-10-23T13:57:21.289Z,12.55
2023-10-23T13:59:48.847Z,12.49
2023-10-23T14:02:15.979Z,12.52
2023-10-23T14:04:45.550Z,12.53
2023-10-23T14:07:13.811Z,12.58
2023-10-23T14:09:46.277Z,12.57
2023-10-23T14:12:16.401Z,12.57
2023-10-23T14:14:43.954Z,12.53
2023-10-23T14:17:11.180Z,12.46
2023-10-23T14:19:47.901Z,12.50
2023-10-23T14:22:17.118Z,12.53
2023-10-23T14:24:44.280Z,12.51
2023-10-23T14:27:11.515Z,12.55
2023-10-23T14:29:39.225Z,12.56
2023-10-23T14:32:06.855Z,12.56
2023-10-23T14:34:34.096Z,12.49
2023-10-23T14:37:01.595Z,12.48
2023-10-23T14:39:30.891Z,12.45
2023-10-23T14:41:58.096Z,12.45
2023-10-23T14:44:25.352Z,12.46
2023-10-23T14:46:53.057Z,12.48
2023-10-23T14:49:20.597Z,12.46
2023-10-23T14:51:47.861Z,12.41
2023-10-23T14:54:15.150Z,12.41
2023-10-23T14:56:42.257Z,12.39
2023-10-23T14:59:09.778Z,12.39
2023-10-23T15:01:37.162Z,12.39
2023-10-23T15:04:04.639Z,12.33
2023-10-23T15:06:32.027Z,12.22
2023-10-23T15:08:59.827Z,12.18
2023-10-23T15:11:26.992Z,12.15
2023-10-23T15:13:54.309Z,12.08
2023-10-23T15:16:21.592Z,12.11
2023-10-23T15:18:51.302Z,12.10
2023-10-23T15:21:18.771Z,12.07
2023-10-23T15:23:45.983Z,12.08
2023-10-23T15:26:13.181Z,12.07
2023-10-23T15:28:40.346Z,12.07
2023-10-23T15:31:07.921Z,12.05
2023-10-23T15:33:36.793Z,12.06
2023-10-23T15:36:04.821Z,12.05
2023-10-23T15:38:32.880Z,12.01
2023-10-23T15:41:07.690Z,11.95
2023-10-23T15:43:35.377Z,11.91
2023-10-23T15:46:03.470Z,11.96
2023-10-23T15:48:30.950Z,11.90
2023-10-23T15:50:58.593Z,11.84
2023-10-23T15:53:28.507Z,11.78
2023-10-23T15:55:58.175Z,11.72
2023-10-23T15:58:26.013Z,11.73
2023-10-23T16:00:54.169Z,11.58
2023-10-23T16:03:21.875Z,11.60
2023-10-23T16:05:49.649Z,11.57
2023-10-23T16:08:19.585Z,11.54
2023-10-23T16:10:51.086Z,11.45
2023-10-23T16:13:18.859Z,11.42
2023-10-23T16:15:46.605Z,11.42
2023-10-23T16:18:14.727Z,11.41
2023-10-23T16:20:43.442Z,11.43
2023-10-23T16:23:11.792Z,11.38
2023-10-23T16:25:41.340Z,11.37
2023-10-23T16:28:09.135Z,11.28
2023-10-23T16:30:36.681Z,11.23
2023-10-23T16:33:04.000Z,11.24
2023-10-23T16:35:31.105Z,11.21
2023-10-23T16:37:58.412Z,11.18
2023-10-23T16:40:26.569Z,11.15
2023-10-23T16:42:53.697Z,11.18
2023-10-23T16:45:21.473Z,11.05
2023-10-23T16:47:48.610Z,11.02
2023-10-23T16:50:15.716Z,10.98
2023-10-23T16:52:46.012Z,10.92
2023-10-23T16:55:13.184Z,10.86
2023-10-23T16:57:42.156Z,10.88
2023-10-23T17:00:13.683Z,10.81
2023-10-23T17:02:41.321Z,10.80
2023-10-23T17:05:11.510Z,10.70
2023-10-23T17:07:39.997Z,10.77
2023-10-23T17:10:07.563Z,10.74
2023-10-23T17:12:35.264Z,10.72
2023-10-23T17:15:03.550Z,10.69
2023-10-23T17:17:31.527Z,10.72
2023-10-23T17:19:58.660Z,10.70
2023-10-23T17:22:25.827Z,10.64
2023-10-23T17:24:53.031Z,10.61
2023-10-23T17:27:20.669Z,10.61
2023-10-23T17:29:47.829Z,10.62
2023-10-23T17:32:15.110Z,10.55
2023-10-23T17:34:42.281Z,10.60
2023-10-23T17:37:09.465Z,10.53
2023-10-23T17:39:36.608Z,10.52
2023-10-23T17:42:04.054Z,10.50
2023-10-23T17:44:31.590Z,10.42
2023-10-23T17:46:58.796Z,10.47
2023-10-23T17:49:26.070Z,10.45
2023-10-23T17:51:53.260Z,10.39
2023-10-23T17:54:20.404Z,10.42
2023-10-23T17:56:47.492Z,10.36
2023-10-23T17:59:14.583Z,10.39
2023-10-23T18:01:43.079Z,10.32
2023-10-23T18:04:12.115Z,10.29
2023-10-23T18:06:39.895Z,10.27
2023-10-23T18:09:07.702Z,10.29
2023-10-23T18:11:35.034Z,10.26
2023-10-23T18:14:02.336Z,10.28
2023-10-23T18:16:29.772Z,10.28
2023-10-23T18:18:57.182Z,10.29
2023-10-23T18:21:25.550Z,10.28
2023-10-23T18:23:52.876Z,10.27
2023-10-23T18:26:19.972Z,10.23
2023-10-23T18:28:47.081Z,10.25
2023-10-23T18:31:15.176Z,10.24
2023-10-23T18:33:42.501Z,10.21
2023-10-23T18:36:17.469Z,10.19
2023-10-23T18:38:46.178Z,10.22
2023-10-23T18:41:20.080Z,10.22
2023-10-23T18:43:47.516Z,10.23
2023-10-23T18:46:15.616Z,10.22
2023-10-23T18:48:42.976Z,10.21
2023-10-23T18:51:13.679Z,10.20
2023-10-23T18:53:41.701Z,10.14
2023-10-23T18:56:08.948Z,10.11
2023-10-23T18:58:36.332Z,10.10
2023-10-23T19:01:03.610Z,10.08
2023-10-23T19:03:31.574Z,10.14
2023-10-23T19:05:58.934Z,10.15
2023-10-23T19:08:26.372Z,10.22
2023-10-23T19:10:53.444Z,10.20
2023-10-23T19:13:21.127Z,10.24
2023-10-23T19:15:55.568Z,10.22
2023-10-23T19:18:23.617Z,10.27
2023-10-23T19:20:51.684Z,10.29
2023-10-23T19:23:19.117Z,10.33
2023-10-23T19:25:50.489Z,10.27
2023-10-23T19:28:17.591Z,10.32
2023-10-23T19:30:44.744Z,10.33
2023-10-23T19:33:12.260Z,10.39
2023-10-23T19:35:39.442Z,10.41
2023-10-23T19:38:06.757Z,10.40
2023-10-23T19:40:34.066Z,10.41
2023-10-23T19:43:13.304Z,10.43
2023-10-23T19:45:41.600Z,10.43
2023-10-23T19:48:10.835Z,10.44
2023-10-23T19:50:38.912Z,10.42
2023-10-23T19:53:06.563Z,10.41
2023-10-23T19:55:43.698Z,10.40
2023-10-23T19:58:12.615Z,10.38
2023-10-23T20:00:39.849Z,10.42
2023-10-23T20:03:07.142Z,10.41
2023-10-23T20:05:34.445Z,10.35
2023-10-23T20:08:02.202Z,10.38
2023-10-23T20:10:30.618Z,10.34
2023-10-23T20:12:59.994Z,10.32
2023-10-23T20:15:32.633Z,10.32
2023-10-23T20:17:59.857Z,10.32
2023-10-23T20:20:27.158Z,10.33
2023-10-23T20:22:54.510Z,10.37
2023-10-23T20:25:21.849Z,10.32
2023-10-23T20:27:49.457Z,10.31
2023-10-23T20:30:16.563Z,10.33
2023-10-23T20:32:43.678Z,10.32
2023-10-23T20:35:10.795Z,10.28
2023-10-23T20:37:37.869Z,10.27
2023-10-23T20:40:06.211Z,10.26
2023-10-23T20:42:34.461Z,10.31
2023-10-23T20:45:06.268Z,10.34
2023-10-23T20:47:33.985Z,10.30
2023-10-23T20:50:02.320Z,10.33
2023-10-23T20:52:30.519Z,10.26
2023-10-23T20:54:57.728Z,10.26
2023-10-23T20:57:25.079Z,10.32
2023-10-23T20:59:52.302Z,10.29
2023-10-23T21:02:19.549Z,10.27
2023-10-23T21:04:46.789Z,10.26
2023-10-23T21:07:14.086Z,10.25
2023-10-23T21:09:41.692Z,10.25
2023-10-23T21:12:09.049Z,10.27
2023-10-23T21:14:44.578Z,10.24
2023-10-23T21:17:11.823Z,10.23
2023-10-23T21:19:39.228Z,10.22
2023-10-23T21:22:06.909Z,10.29
2023-10-23T21:24:34.417Z,10.25
2023-10-23T21:27:02.297Z,10.21
2023-10-23T21:29:29.415Z,10.20
2023-10-23T21:31:56.590Z,10.21
2023-10-23T21:34:24.090Z,10.21
2023-10-23T21:36:51.225Z,10.25
2023-10-23T21:39:18.322Z,10.24
2023-10-23T21:41:45.479Z,10.28
2023-10-23T21:44:12.607Z,10.27
2023-10-23T21:46:39.771Z,10.25
2023-10-23T21:49:11.184Z,10.30
2023-10-23T21:51:39.000Z,10.29
2023-10-23T21:54:06.376Z,10.34
2023-10-23T21:57:16.142Z,10.39
2023-10-23T21:59:22.532Z,10.38
2023-10-23T22:01:53.380Z,10.39
2023-10-23T22:04:21.295Z,10.35
2023-10-23T22:06:48.657Z,10.33
2023-10-23T22:09:18.873Z,10.24
2023-10-23T22:11:46.070Z,10.20
2023-10-23T22:14:13.371Z,10.21
2023-10-23T22:16:40.572Z,10.22
2023-10-23T22:19:07.757Z,10.18
2023-10-23T22:21:34.907Z,10.15
2023-10-23T22:24:02.007Z,10.22
2023-10-23T22:26:30.655Z,10.15
2023-10-23T22:28:57.701Z,10.14
2023-10-23T22:31:24.897Z,10.15
2023-10-23T22:33:52.031Z,10.14
2023-10-23T22:36:19.081Z,10.18
2023-10-23T22:38:46.194Z,10.13
2023-10-23T22:41:13.350Z,10.13
2023-10-23T22:43:40.667Z,10.22
2023-10-23T22:46:07.959Z,10.24
2023-10-23T22:48:35.105Z,10.25
2023-10-23T22:51:02.395Z,10.21
2023-10-23T22:53:30.405Z,10.25
2023-10-23T22:55:59.622Z,10.28
2023-10-23T22:58:29.518Z,10.29
2023-10-23T23:01:00.297Z,10.30
2023-10-23T23:03:27.758Z,10.24
2023-10-23T23:05:59.744Z,10.25
2023-10-23T23:08:27.990Z,10.15
2023-10-23T23:10:55.260Z,10.14
2023-10-23T23:13:22.460Z,10.13
2023-10-23T23:15:51.036Z,10.12
2023-10-23T23:18:19.939Z,10.18
2023-10-23T23:20:48.436Z,10.18
2023-10-23T23:23:15.706Z,10.22
2023-10-23T23:25:42.791Z,10.25
2023-10-23T23:28:09.908Z,10.20
2023-10-23T23:30:37.092Z,10.17
2023-10-23T23:33:04.429Z,10.12
2023-10-23T23:35:31.618Z,10.17
2023-10-23T23:37:58.954Z,10.13
2023-10-23T23:40:26.110Z,10.14
2023-10-23T23:42:53.312Z,10.05
2023-10-23T23:45:20.380Z,9.97
2023-10-23T23:47:47.503Z,9.96
2023-10-23T23:50:15.652Z,10.03
2023-10-23T23:52:42.855Z,10.11
2023-10-23T23:55:10.042Z,10.11
2023-10-23T23:57:37.216Z,10.10
